createdAt,value
2022-11-17T00:03:06.393Z,11.20
2022-11-17T00:13:11.165Z,7.85
2022-11-17T00:23:13.212Z,8.00
2022-11-17T00:33:15.330Z,11.88
2022-11-17T00:43:17.460Z,10.45
2022-11-17T00:53:19.472Z,9.73
2022-11-17T01:03:21.944Z,7.82
2022-11-17T01:13:25.170Z,5.38
2022-11-17T01:23:27.215Z,12.70
2022-11-17T01:33:29.331Z,9.73
2022-11-17T01:43:38.652Z,9.43
2022-11-17T01:53:40.852Z,6.63
2022-11-17T02:03:45.966Z,9.30
2022-11-17T02:13:48.990Z,10.98
2022-11-17T02:23:56.738Z,6.50
2022-11-17T02:34:01.314Z,9.57
2022-11-17T02:44:10.108Z,5.72
2022-11-17T02:54:12.896Z,9.30
2022-11-17T03:04:35.534Z,9.95
2022-11-17T03:14:47.506Z,9.02
2022-11-17T03:24:53.058Z,16.83
2022-11-17T03:35:05.342Z,11.73
2022-11-17T03:45:17.206Z,10.40
2022-11-17T03:55:19.310Z,10.77
2022-11-17T04:05:21.326Z,12.07
2022-11-17T04:15:23.331Z,7.97
2022-11-17T04:25:25.319Z,6.88
2022-11-17T04:35:27.206Z,5.45
2022-11-17T04:45:29.086Z,9.32
2022-11-17T04:55:32.580Z,8.73
2022-11-17T05:05:34.614Z,9.15
2022-11-17T05:15:36.447Z,9.98
2022-11-17T05:25:38.286Z,5.80
2022-11-17T05:35:40.100Z,19.17
2022-11-17T05:45:42.171Z,2.92
2022-11-17T05:55:43.976Z,6.45
2022-11-17T06:05:46.405Z,7.43
2022-11-17T06:15:48.204Z,18.08
2022-11-17T06:25:50.058Z,10.90
2022-11-17T06:35:52.582Z,15.30
2022-11-17T06:45:54.535Z,13.95
2022-11-17T06:55:56.464Z,23.08
2022-11-17T07:06:01.576Z,19.35
2022-11-17T07:16:21.668Z,4.88
2022-11-17T07:26:25.260Z,5.35
2022-11-17T07:36:27.114Z,6.13
2022-11-17T07:46:28.953Z,7.60
2022-11-17T07:56:30.911Z,4.63
2022-11-17T08:06:32.780Z,4.88
2022-11-17T08:16:34.606Z,6.95
2022-11-17T08:26:36.495Z,8.90
2022-11-17T08:36:38.798Z,9.93
2022-11-17T08:46:40.656Z,9.65
2022-11-17T08:56:42.564Z,7.03
2022-11-17T09:06:44.545Z,7.35
2022-11-17T09:16:46.416Z,9.27
2022-11-17T09:26:48.433Z,5.53
2022-11-17T09:36:50.352Z,3.28
2022-11-17T09:47:07.049Z,4.68
2022-11-17T09:57:19.984Z,5.40
2022-11-17T10:07:22.236Z,2.95
2022-11-17T10:17:24.166Z,3.60
2022-11-17T10:27:32.006Z,5.95
2022-11-17T10:37:33.854Z,4.43
2022-11-17T10:47:40.407Z,2.53
2022-11-17T10:57:46.298Z,12.63
2022-11-17T11:07:48.169Z,6.03
2022-11-17T11:17:50.703Z,5.13
2022-11-17T11:28:16.948Z,3.13
2022-11-17T11:38:56.208Z,4.43
2022-11-17T11:49:23.763Z,5.88
2022-11-17T11:59:42.998Z,5.28
2022-11-17T12:10:18.403Z,7.47
2022-11-17T12:20:31.890Z,4.20
2022-11-17T12:30:33.689Z,4.90
2022-11-17T12:40:38.400Z,14.40
2022-11-17T12:50:52.432Z,8.45
2022-11-17T13:01:15.271Z,13.48
2022-11-17T13:11:17.278Z,13.90
2022-11-17T13:21:25.199Z,23.40
2022-11-17T13:31:27.307Z,9.48
2022-11-17T13:41:37.114Z,6.93
2022-11-17T13:51:39.470Z,11.73
2022-11-17T14:01:41.626Z,11.90
2022-11-17T14:11:43.606Z,7.97
2022-11-17T14:22:26.207Z,7.68
2022-11-17T14:32:32.643Z,9.45
2022-11-17T14:42:36.147Z,13.93
2022-11-17T14:52:38.458Z,8.90
2022-11-17T15:02:40.505Z,18.73
2022-11-17T15:12:42.338Z,10.85
2022-11-17T15:22:44.147Z,14.32
2022-11-17T15:32:46.001Z,10.93
2022-11-17T15:42:47.952Z,14.05
2022-11-17T15:53:03.678Z,12.13
2022-11-17T16:03:06.507Z,10.90
2022-11-17T16:13:08.319Z,16.08
2022-11-17T16:23:10.371Z,18.23
2022-11-17T16:33:14.192Z,14.57
2022-11-17T16:43:16.139Z,20.98
2022-11-17T16:53:18.063Z,15.18
2022-11-17T17:03:20.106Z,14.57
2022-11-17T17:13:22.039Z,13.48
2022-11-17T17:23:24.047Z,16.80
2022-11-17T17:33:26.933Z,7.90
2022-11-17T17:43:28.767Z,14.80
2022-11-17T17:53:30.987Z,17.60
2022-11-17T18:03:32.905Z,15.77
2022-11-17T18:13:39.235Z,11.45
2022-11-17T18:23:41.475Z,14.68
2022-11-17T18:33:43.521Z,13.55
2022-11-17T18:43:45.646Z,7.97
2022-11-17T18:53:51.566Z,14.00
2022-11-17T19:03:54.921Z,14.15
2022-11-17T19:13:58.329Z,15.15
2022-11-17T19:24:02.500Z,21.40
2022-11-17T19:34:04.575Z,28.30
2022-11-17T19:44:08.701Z,31.20
2022-11-17T19:54:12.824Z,20.98
2022-11-17T20:04:14.860Z,18.00
2022-11-17T20:14:16.679Z,14.30
2022-11-17T20:24:18.517Z,22.58
2022-11-17T20:34:20.282Z,24.55
2022-11-17T20:44:22.371Z,17.88
2022-11-17T20:54:24.193Z,17.55
2022-11-17T21:04:26.126Z,19.83
2022-11-17T21:14:28.277Z,18.55
2022-11-17T21:24:30.207Z,20.13
2022-11-17T21:34:32.040Z,22.17
2022-11-17T21:44:33.847Z,25.67
2022-11-17T21:54:35.708Z,19.60
2022-11-17T22:04:37.572Z,22.38
2022-11-17T22:14:39.424Z,36.30
2022-11-17T22:24:44.411Z,38.55
2022-11-17T22:34:50.405Z,22.33
2022-11-17T22:44:52.775Z,30.85
2022-11-17T22:54:54.698Z,31.75
2022-11-17T23:04:56.648Z,25.20
2022-11-17T23:14:58.573Z,15.88
2022-11-17T23:25:00.454Z,31.13
2022-11-17T23:35:02.336Z,33.60
2022-11-17T23:45:04.595Z,25.02
2022-11-17T23:55:07.084Z,26.17
